Time;durP1;ratioP1;P1;durP2;ratioP2;P2;SDS_P1;SDS_P2;PMS_P1;PMS_P2;Temp;Humidity;BMP_temperature;BMP_pressure;BME280_temperature;BME280_humidity;BME280_pressure;Samples;Min_cycle;Max_cycle;Signal;HPM_P1;HPM_P2
2023/12/17 00:00:41;;;;;;;59.03;36.15;;;;;;;6.69;87.70;103525.16;5049952;28;20053;-64
2023/12/17 00:03:08;;;;;;;54.85;35.38;;;;;;;6.53;88.30;103525.69;5042034;28;20041;-62
2023/12/17 00:05:48;;;;;;;55.20;35.63;;;;;;;6.55;88.32;103519.97;5051846;28;20045;-63
2023/12/17 00:08:19;;;;;;;55.03;35.05;;;;;;;6.53;88.75;103522.94;5054615;28;20049;-62
2023/12/17 00:10:52;;;;;;;59.08;34.72;;;;;;;6.53;88.51;103514.72;5050576;28;20063;-62
2023/12/17 00:13:19;;;;;;;54.08;34.35;;;;;;;6.59;87.50;103519.31;5054360;28;20049;-64
2023/12/17 00:15:47;;;;;;;52.28;34.03;;;;;;;6.65;87.25;103515.72;5054740;28;20045;-64
2023/12/17 00:18:14;;;;;;;54.53;34.75;;;;;;;6.51;87.75;103516.84;5052621;28;20053;-62
2023/12/17 00:20:42;;;;;;;52.85;34.15;;;;;;;6.49;88.54;103518.09;5053538;28;20056;-63
2023/12/17 00:23:10;;;;;;;52.50;33.15;;;;;;;6.48;87.95;103517.28;5053419;28;20056;-63
2023/12/17 00:25:37;;;;;;;52.65;32.90;;;;;;;6.61;86.97;103517.19;5044401;28;20045;-62
2023/12/17 00:28:04;;;;;;;55.63;33.65;;;;;;;6.37;87.64;103520.69;5074219;28;20048;-62
2023/12/17 00:30:32;;;;;;;56.05;33.55;;;;;;;6.42;87.47;103523.63;5056220;28;20595;-62
2023/12/17 00:32:59;;;;;;;51.60;33.45;;;;;;;6.39;87.84;103525.94;5055212;28;20044;-63
2023/12/17 00:35:27;;;;;;;53.10;33.42;;;;;;;6.38;87.84;103529.75;5055785;28;20416;-63
2023/12/17 00:37:54;;;;;;;48.45;32.85;;;;;;;6.43;87.61;103524.47;5056213;28;20391;-61
2023/12/17 00:40:22;;;;;;;52.15;33.10;;;;;;;6.53;87.15;103531.16;5053720;28;20075;-61
2023/12/17 00:42:49;;;;;;;59.00;34.13;;;;;;;6.36;86.46;103529.94;5061035;28;20041;-62
2023/12/17 00:45:17;;;;;;;53.63;33.90;;;;;;;6.42;86.43;103545.53;5053096;28;20048;-62
2023/12/17 00:47:44;;;;;;;51.90;33.05;;;;;;;6.46;86.26;103544.03;5052899;28;20442;-62
2023/12/17 00:50:12;;;;;;;52.63;33.97;;;;;;;6.36;86.29;103529.94;5052060;28;20057;-62
2023/12/17 00:52:42;;;;;;;54.00;34.80;;;;;;;6.34;86.43;103531.25;5048178;28;20061;-62
2023/12/17 00:55:20;;;;;;;54.25;34.78;;;;;;;6.40;86.27;103533.94;5045039;28;20056;-62
2023/12/17 00:57:47;;;;;;;56.65;35.65;;;;;;;6.29;86.67;103526.44;5044962;28;20045;-62
2023/12/17 01:00:15;;;;;;;50.25;32.75;;;;;;;6.27;86.03;103534.00;5042724;28;20053;-62
2023/12/17 01:02:42;;;;;;;46.38;30.63;;;;;;;6.33;86.40;103535.88;5042728;28;20071;-62
2023/12/17 01:05:10;;;;;;;45.45;30.63;;;;;;;6.69;85.27;103548.97;5052400;28;20033;-64
2023/12/17 01:07:37;;;;;;;48.33;31.00;;;;;;;6.34;84.28;103559.47;5047948;28;20052;-62
2023/12/17 01:10:05;;;;;;;58.97;31.05;;;;;;;6.07;86.14;103560.59;5052823;28;20080;-62
2023/12/17 01:12:33;;;;;;;46.58;31.30;;;;;;;6.19;86.41;103567.06;5052506;28;20115;-62
2023/12/17 01:15:00;;;;;;;46.33;31.92;;;;;;;6.19;86.80;103569.81;5050999;28;20044;-62
2023/12/17 01:17:28;;;;;;;49.67;31.55;;;;;;;6.28;86.14;103573.16;5032216;28;20072;-62
2023/12/17 01:19:55;;;;;;;49.05;30.70;;;;;;;6.26;86.38;103567.06;5051046;28;20274;-63
2023/12/17 01:22:22;;;;;;;48.15;30.95;;;;;;;6.37;85.81;103569.97;5051154;28;20262;-64
2023/12/17 01:24:54;;;;;;;49.92;30.92;;;;;;;6.18;85.76;103570.88;5034188;28;20064;-63
2023/12/17 01:27:22;;;;;;;44.85;29.13;;;;;;;5.89;87.12;103576.84;5034915;28;20057;-63
2023/12/17 01:29:49;;;;;;;44.28;29.52;;;;;;;6.08;87.13;103575.97;5018107;28;20144;-63
2023/12/17 01:32:16;;;;;;;45.47;30.55;;;;;;;6.06;86.91;103569.00;5051446;28;20492;-64
2023/12/17 01:34:47;;;;;;;49.13;29.45;;;;;;;6.18;86.92;103564.56;5033518;28;20055;-63
2023/12/17 01:37:14;;;;;;;42.08;28.48;;;;;;;6.01;85.86;103564.19;5052715;28;20057;-62
2023/12/17 01:39:41;;;;;;;43.42;28.08;;;;;;;6.01;86.96;103568.81;5052927;28;20416;-63
2023/12/17 01:42:08;;;;;;;41.85;28.25;;;;;;;5.77;87.88;103561.25;5052837;28;20059;-64
2023/12/17 01:44:36;;;;;;;49.80;29.10;;;;;;;6.02;87.50;103557.66;5050059;28;20052;-62
2023/12/17 01:47:03;;;;;;;39.92;28.42;;;;;;;5.73;88.09;103558.09;5052130;28;20055;-64
2023/12/17 01:49:30;;;;;;;39.53;27.40;;;;;;;5.63;88.87;103560.44;5034417;28;20045;-64
2023/12/17 01:51:58;;;;;;;39.78;28.17;;;;;;;5.83;88.23;103560.41;5051818;28;20083;-64
2023/12/17 01:54:25;;;;;;;39.55;26.75;;;;;;;5.95;87.73;103556.81;5052189;28;20051;-64
2023/12/17 01:56:53;;;;;;;44.00;27.75;;;;;;;6.03;87.08;103548.41;5051517;28;20068;-63
2023/12/17 01:59:20;;;;;;;38.95;26.20;;;;;;;6.17;86.58;103551.94;5034192;28;20045;-63
2023/12/17 02:01:48;;;;;;;43.83;27.52;;;;;;;6.17;85.91;103554.69;5034077;28;20056;-63
2023/12/17 02:04:17;;;;;;;37.35;25.65;;;;;;;6.12;86.10;103552.56;5050543;28;20053;-64
2023/12/17 02:06:44;;;;;;;41.33;26.42;;;;;;;6.17;86.54;103552.75;5033327;28;20049;-63
2023/12/17 02:09:12;;;;;;;43.42;25.80;;;;;;;6.26;85.46;103554.22;5033874;28;20049;-63
2023/12/17 02:11:39;;;;;;;41.22;26.55;;;;;;;5.90;86.75;103551.16;5051947;28;20056;-63
2023/12/17 02:14:06;;;;;;;36.63;26.08;;;;;;;6.11;86.17;103553.63;5052320;28;20052;-64
2023/12/17 02:16:34;;;;;;;37.38;25.80;;;;;;;6.10;85.48;103548.38;5052081;28;20049;-63
2023/12/17 02:19:01;;;;;;;42.88;27.38;;;;;;;6.21;85.82;103548.53;5049057;28;20411;-64
2023/12/17 02:21:31;;;;;;;45.80;27.88;;;;;;;6.24;85.02;103548.09;5051506;28;20051;-64
2023/12/17 02:23:58;;;;;;;;;;;;;;;6.15;85.70;103541.22;5034332;28;20052;-63
2023/12/17 02:26:26;;;;;;;46.92;29.55;;;;;;;6.08;86.12;103548.59;5017424;28;19931;-63
2023/12/17 02:28:53;;;;;;;48.22;29.63;;;;;;;6.17;85.58;103539.06;5016530;28;20441;-64
2023/12/17 02:31:21;;;;;;;44.95;27.65;;;;;;;5.97;86.33;103534.72;5049654;28;20063;-64
2023/12/17 02:33:48;;;;;;;42.55;28.17;;;;;;;6.05;86.29;103531.78;5049970;28;20060;-62
2023/12/17 02:36:18;;;;;;;42.38;28.33;;;;;;;5.98;85.79;103520.81;5050980;28;20063;-61
2023/12/17 02:38:46;;;;;;;51.05;27.83;;;;;;;5.77;86.21;103512.84;5033362;28;20049;-62
2023/12/17 02:41:13;;;;;;;37.60;24.80;;;;;;;5.87;86.46;103513.31;5049982;28;20060;-63
2023/12/17 02:43:41;;;;;;;37.92;25.13;;;;;;;5.73;87.26;103507.00;5050655;28;20364;-62
2023/12/17 02:46:08;;;;;;;36.42;24.25;;;;;;;5.83;86.34;103511.19;5033957;28;20041;-63
2023/12/17 02:48:35;;;;;;;38.25;24.42;;;;;;;5.58;86.55;103503.63;5051052;28;20051;-62
2023/12/17 02:51:03;;;;;;;40.42;24.67;;;;;;;5.53;87.14;103500.69;5051391;28;20064;-63
2023/12/17 02:53:31;;;;;;;37.25;23.80;;;;;;;5.60;87.11;103497.94;5033850;28;20049;-62
2023/12/17 02:55:59;;;;;;;33.95;22.55;;;;;;;5.49;87.09;103495.88;5050669;28;20576;-64
2023/12/17 02:58:27;;;;;;;35.55;23.02;;;;;;;5.63;86.88;103495.63;5051150;28;20723;-62
2023/12/17 03:00:54;;;;;;;35.90;23.60;;;;;;;5.52;86.99;103484.50;5051355;28;20052;-62
2023/12/17 03:03:21;;;;;;;38.10;23.60;;;;;;;5.56;86.42;103483.03;5053768;28;20049;-62
2023/12/17 03:05:49;;;;;;;38.65;24.08;;;;;;;5.58;86.26;103481.75;5054299;28;20037;-61
2023/12/17 03:08:17;;;;;;;37.97;24.20;;;;;;;5.23;86.34;103466.66;5054918;28;20049;-62
2023/12/17 03:10:44;;;;;;;34.92;22.48;;;;;;;5.40;87.30;103464.34;5037490;28;20067;-63
2023/12/17 03:13:12;;;;;;;36.22;24.05;;;;;;;5.51;86.29;103469.16;5055349;28;20048;-62
2023/12/17 03:15:39;;;;;;;38.47;23.95;;;;;;;5.49;85.67;103465.81;5036470;28;20053;-63
2023/12/17 03:18:06;;;;;;;34.22;23.20;;;;;;;5.24;86.06;103462.03;5055010;28;20057;-62
2023/12/17 03:20:34;;;;;;;33.95;22.50;;;;;;;5.23;87.21;103457.66;5054698;28;20495;-62
2023/12/17 03:23:01;;;;;;;36.40;23.77;;;;;;;5.41;86.85;103455.94;5054686;28;20114;-62
2023/12/17 03:25:28;;;;;;;33.50;23.15;;;;;;;5.38;85.82;103444.59;5020398;28;20063;-63
2023/12/17 03:27:56;;;;;;;34.75;23.02;;;;;;;5.57;85.61;103440.97;5054763;28;20041;-61
2023/12/17 03:30:23;;;;;;;32.97;22.77;;;;;;;5.20;85.78;103447.13;5037238;28;20063;-62
2023/12/17 03:32:51;;;;;;;34.67;22.98;;;;;;;5.14;86.06;103439.78;5054709;28;20053;-63
2023/12/17 03:35:19;;;;;;;35.63;22.45;;;;;;;5.09;86.72;103437.66;5055002;28;20049;-62
2023/12/17 03:37:46;;;;;;;34.10;21.88;;;;;;;5.02;87.05;103449.66;5055065;28;20053;-63
2023/12/17 03:40:13;;;;;;;35.13;20.73;;;;;;;4.88;87.85;103443.34;5053826;28;20049;-62
2023/12/17 03:42:40;;;;;;;35.95;22.02;;;;;;;5.00;86.84;103443.56;5054952;28;20060;-65
2023/12/17 03:45:08;;;;;;;34.22;21.23;;;;;;;4.84;87.25;103433.06;5054998;28;20048;-63
2023/12/17 03:47:37;;;;;;;35.83;22.20;;;;;;;4.82;87.27;103436.00;5054751;28;20053;-63
2023/12/17 03:50:05;;;;;;;28.73;20.30;;;;;;;5.01;86.62;103431.56;5054722;28;20057;-62
2023/12/17 03:52:32;;;;;;;31.98;21.27;;;;;;;4.80;86.77;103438.09;5036612;28;20055;-62
2023/12/17 03:54:59;;;;;;;29.92;20.20;;;;;;;4.65;87.20;103429.25;5036242;28;20056;-62
2023/12/17 03:57:27;;;;;;;29.33;19.30;;;;;;;4.67;87.63;103426.31;5031569;28;20057;-62
2023/12/17 03:59:54;;;;;;;32.97;20.13;;;;;;;4.54;87.64;103429.88;5008335;28;20049;-63
2023/12/17 04:02:21;;;;;;;27.88;18.42;;;;;;;4.69;87.68;103430.50;5052658;28;20056;-62
2023/12/17 04:04:49;;;;;;;27.00;18.67;;;;;;;4.69;86.44;103426.97;5017370;28;20048;-63
2023/12/17 04:07:16;;;;;;;27.55;18.58;;;;;;;4.48;87.39;103428.00;5033067;28;20525;-62
2023/12/17 04:09:43;;;;;;;24.98;17.80;;;;;;;4.73;86.88;103417.28;5055477;28;20121;-63
2023/12/17 04:12:10;;;;;;;26.98;17.50;;;;;;;4.56;86.44;103416.84;5074342;28;20057;-61
2023/12/17 04:14:38;;;;;;;25.55;17.48;;;;;;;4.26;88.30;103418.25;5055779;28;20498;-61
2023/12/17 04:17:07;;;;;;;29.20;17.38;;;;;;;4.48;88.27;103419.78;5039457;28;20055;-65
2023/12/17 04:19:34;;;;;;;25.05;17.30;;;;;;;4.43;87.63;103422.28;5039602;28;20431;-62
2023/12/17 04:22:01;;;;;;;28.50;17.80;;;;;;;4.34;87.63;103418.09;5073919;28;20494;-62
2023/12/17 04:24:29;;;;;;;26.20;17.10;;;;;;;4.46;87.64;103414.53;5056625;28;20071;-62
2023/12/17 04:26:56;;;;;;;26.88;17.73;;;;;;;4.50;87.70;103414.94;5056292;28;20048;-61
2023/12/17 04:29:24;;;;;;;26.63;17.40;;;;;;;4.71;87.83;103413.94;5058621;28;20053;-62
2023/12/17 04:31:52;;;;;;;25.10;16.75;;;;;;;4.66;86.20;103405.50;5035918;28;20052;-62
2023/12/17 04:34:19;;;;;;;23.88;16.20;;;;;;;4.55;86.61;103402.38;5036331;28;20057;-62
2023/12/17 04:36:47;;;;;;;24.80;16.88;;;;;;;4.54;87.04;103406.16;5053148;28;20435;-63
2023/12/17 04:39:14;;;;;;;23.45;15.82;;;;;;;4.39;86.98;103412.84;5036243;28;20060;-62
2023/12/17 04:41:42;;;;;;;26.77;17.35;;;;;;;4.34;87.31;103405.25;5053505;28;20057;-63
2023/12/17 04:44:09;;;;;;;28.98;17.05;;;;;;;4.50;86.78;103404.03;5035637;28;20053;-63
2023/12/17 04:46:38;;;;;;;25.67;17.23;;;;;;;4.64;86.29;103399.44;5035357;28;20045;-62
2023/12/17 04:49:05;;;;;;;27.25;16.60;;;;;;;4.47;86.15;103402.56;5019430;28;20048;-61
2023/12/17 04:51:32;;;;;;;28.60;17.70;;;;;;;4.34;87.04;103404.44;5053490;28;20736;-62
2023/12/17 04:54:00;;;;;;;25.90;16.10;;;;;;;4.42;86.56;103406.97;5052414;28;20060;-63
2023/12/17 04:56:27;;;;;;;26.83;17.48;;;;;;;4.21;87.50;103399.78;5051428;28;20053;-62
2023/12/17 04:58:54;;;;;;;25.38;16.77;;;;;;;3.98;88.25;103403.91;5035012;28;20049;-61
2023/12/17 05:01:21;;;;;;;25.63;16.27;;;;;;;4.09;88.60;103406.91;5052479;28;20064;-61
2023/12/17 05:03:49;;;;;;;24.85;16.30;;;;;;;4.09;88.76;103403.31;5035195;28;20071;-63
2023/12/17 05:06:17;;;;;;;25.17;16.70;;;;;;;4.07;88.88;103397.22;5051844;28;20041;-62
2023/12/17 05:08:44;;;;;;;25.73;16.58;;;;;;;3.84;88.79;103394.84;5052837;28;20056;-63
2023/12/17 05:11:12;;;;;;;23.48;15.70;;;;;;;3.78;89.45;103400.28;5052994;28;20053;-62
2023/12/17 05:13:39;;;;;;;23.33;14.40;;;;;;;3.68;90.08;103406.09;5052954;28;20049;-62
2023/12/17 05:16:06;;;;;;;24.95;15.43;;;;;;;3.64;90.75;103401.25;5053047;28;20172;-62
2023/12/17 05:18:34;;;;;;;26.10;15.63;;;;;;;3.57;90.56;103401.22;5017952;28;20064;-63
2023/12/17 05:21:01;;;;;;;24.70;15.23;;;;;;;3.58;91.15;103397.44;5035319;28;20060;-63
2023/12/17 05:23:29;;;;;;;24.10;14.60;;;;;;;3.57;91.25;103398.50;5052608;28;20048;-62
2023/12/17 05:25:56;;;;;;;23.63;15.20;;;;;;;3.56;91.76;103401.44;5052237;28;20049;-61
2023/12/17 05:28:23;;;;;;;27.30;16.27;;;;;;;3.65;91.63;103405.66;5052645;28;20056;-64
2023/12/17 05:30:52;;;;;;;24.30;15.02;;;;;;;3.47;91.79;103414.34;5053038;28;20067;-61
2023/12/17 05:33:19;;;;;;;24.05;15.30;;;;;;;3.71;92.18;103421.22;5052412;28;20053;-62
2023/12/17 05:35:47;;;;;;;26.25;15.75;;;;;;;3.62;91.77;103409.63;5035241;28;20048;-63
2023/12/17 05:38:16;;;;;;;23.33;14.65;;;;;;;3.62;91.59;103416.97;5052525;28;20045;-63
2023/12/17 05:40:43;;;;;;;22.17;14.27;;;;;;;3.84;91.32;103416.66;5052393;28;20059;-61
2023/12/17 05:43:10;;;;;;;23.30;14.90;;;;;;;3.77;91.11;103418.50;5051892;28;20045;-63
2023/12/17 05:45:38;;;;;;;23.55;14.63;;;;;;;3.63;91.56;103421.38;5055858;28;20045;-62
2023/12/17 05:48:17;;;;;;;23.27;14.23;;;;;;;3.62;91.67;103425.13;5034247;28;20056;-62
2023/12/17 05:50:47;;;;;;;21.58;14.75;;;;;;;3.82;91.60;103418.72;5052136;28;20049;-63
2023/12/17 05:53:15;;;;;;;22.20;14.02;;;;;;;3.62;90.80;103422.41;5034305;28;20049;-62
2023/12/17 05:55:43;;;;;;;21.27;14.02;;;;;;;3.53;91.77;103419.00;5052371;28;20061;-62
2023/12/17 05:58:10;;;;;;;21.88;14.23;;;;;;;3.53;92.07;103426.34;5051412;28;20055;-62
2023/12/17 06:00:37;;;;;;;24.98;14.35;;;;;;;3.50;92.65;103421.28;5037311;28;20050;-63
2023/12/17 06:03:04;;;;;;;20.77;14.15;;;;;;;3.50;92.58;103419.41;5020661;28;20047;-61
2023/12/17 06:05:32;;;;;;;19.88;13.07;;;;;;;3.42;91.97;103423.13;5051634;28;20045;-63
2023/12/17 06:07:59;;;;;;;21.80;13.65;;;;;;;3.35;93.32;103421.41;5051897;28;20049;-62
2023/12/17 06:10:27;;;;;;;20.23;13.43;;;;;;;3.38;92.86;103424.56;5051911;28;20053;-62
2023/12/17 06:12:54;;;;;;;20.92;13.70;;;;;;;3.37;92.54;103419.31;5034041;28;20056;-62
2023/12/17 06:15:24;;;;;;;21.20;14.75;;;;;;;3.31;92.91;103420.16;5033719;28;20057;-61
2023/12/17 06:17:51;;;;;;;21.33;14.00;;;;;;;3.58;92.35;103424.69;5050480;28;20408;-64
2023/12/17 06:20:19;;;;;;;22.60;13.45;;;;;;;3.55;92.03;103425.09;5051589;28;20424;-62
2023/12/17 06:22:49;;;;;;;23.02;14.48;;;;;;;3.43;92.21;103432.97;5051445;28;20055;-62
2023/12/17 06:25:16;;;;;;;22.27;13.93;;;;;;;3.31;92.17;103428.31;5052161;28;20057;-62
2023/12/17 06:27:43;;;;;;;22.60;14.20;;;;;;;3.25;93.06;103429.09;5015361;28;20049;-63
2023/12/17 06:30:11;;;;;;;24.83;14.80;;;;;;;3.53;92.51;103421.75;5013099;28;20081;-61
2023/12/17 06:32:41;;;;;;;21.77;14.00;;;;;;;3.55;91.77;103414.22;5030161;28;20266;-62
2023/12/17 06:35:08;;;;;;;21.35;14.32;;;;;;;3.41;92.06;103421.47;5032164;28;20057;-61
2023/12/17 06:37:35;;;;;;;21.05;14.05;;;;;;;3.32;92.43;103416.38;5013094;28;20053;-61
2023/12/17 06:40:03;;;;;;;23.92;14.05;;;;;;;3.31;92.85;103415.50;5031810;28;20060;-61
2023/12/17 06:42:32;;;;;;;21.10;13.45;;;;;;;3.57;92.98;103424.91;5031514;28;20446;-62
2023/12/17 06:45:01;;;;;;;20.17;13.90;;;;;;;3.37;92.85;103416.59;5030578;28;20060;-63
2023/12/17 06:47:28;;;;;;;21.35;13.60;;;;;;;3.46;93.11;103420.84;5013082;28;20053;-64
2023/12/17 06:49:56;;;;;;;19.83;12.30;;;;;;;3.58;92.28;103408.34;5014178;28;20191;-61
2023/12/17 06:52:23;;;;;;;20.40;12.63;;;;;;;3.71;91.70;103407.56;5030256;28;20053;-62
2023/12/17 06:54:50;;;;;;;19.58;13.15;;;;;;;3.62;91.23;103412.34;5031479;28;20049;-62
2023/12/17 06:57:18;;;;;;;21.52;14.02;;;;;;;3.74;89.64;103415.34;5035589;28;20499;-63
2023/12/17 06:59:45;;;;;;;20.83;13.25;;;;;;;3.75;90.16;103417.03;5051330;28;20041;-63
2023/12/17 07:02:13;;;;;;;21.73;12.88;;;;;;;3.67;89.87;103418.03;5049157;28;20299;-63
2023/12/17 07:04:40;;;;;;;20.75;13.60;;;;;;;3.73;89.86;103411.75;5032153;28;20045;-62
2023/12/17 07:07:07;;;;;;;22.50;13.60;;;;;;;3.67;90.08;103428.09;5051356;28;20041;-63
2023/12/17 07:09:35;;;;;;;21.52;14.18;;;;;;;3.52;90.37;103424.66;5050624;28;20053;-62
2023/12/17 07:12:02;;;;;;;22.23;14.25;;;;;;;3.62;91.30;103423.25;5049742;28;20055;-63
2023/12/17 07:14:30;;;;;;;20.38;13.93;;;;;;;3.50;91.40;103422.16;5049093;28;20053;-62
2023/12/17 07:16:57;;;;;;;20.83;14.25;;;;;;;3.43;91.78;103426.72;5051446;28;20136;-63
2023/12/17 07:19:26;;;;;;;22.60;14.38;;;;;;;3.51;92.18;103414.78;5030387;28;20429;-62
2023/12/17 07:21:53;;;;;;;22.15;14.05;;;;;;;3.61;92.03;103423.47;5031621;28;20053;-62
2023/12/17 07:24:20;;;;;;;23.17;14.40;;;;;;;3.34;92.02;103422.47;5035959;28;20439;-62
2023/12/17 07:26:48;;;;;;;23.75;14.20;;;;;;;3.44;91.92;103417.47;5033431;28;20041;-63
2023/12/17 07:29:16;;;;;;;24.02;14.05;;;;;;;3.22;92.51;103419.47;5051317;28;20455;-63
2023/12/17 07:31:43;;;;;;;24.65;14.43;;;;;;;3.26;93.79;103411.72;5048977;28;20052;-63
2023/12/17 07:34:11;;;;;;;21.58;14.02;;;;;;;3.42;93.73;103403.22;5050787;28;20045;-62
2023/12/17 07:36:39;;;;;;;24.13;15.00;;;;;;;3.26;93.39;103418.00;5051695;28;20041;-63
2023/12/17 07:39:06;;;;;;;21.58;14.25;;;;;;;3.36;93.30;103412.22;5032945;28;20056;-62
2023/12/17 07:41:33;;;;;;;24.17;15.13;;;;;;;3.31;93.05;103406.53;5051544;28;20064;-63
2023/12/17 07:44:01;;;;;;;23.30;14.48;;;;;;;3.21;93.73;103406.00;5032986;28;20049;-63
2023/12/17 07:46:28;;;;;;;25.20;15.85;;;;;;;3.08;94.64;103401.34;5017771;28;20055;-64
2023/12/17 07:48:56;;;;;;;23.10;15.15;;;;;;;3.04;95.71;103404.66;5053455;28;20061;-63
2023/12/17 07:51:23;;;;;;;25.05;16.17;;;;;;;3.18;95.63;103411.88;5054336;28;20045;-62
2023/12/17 07:53:51;;;;;;;27.38;16.10;;;;;;;3.08;96.04;103403.22;5054731;28;20055;-64
2023/12/17 07:56:18;;;;;;;23.00;15.50;;;;;;;3.03;96.85;103400.25;5025581;28;20385;-63
2023/12/17 07:58:45;;;;;;;23.67;15.02;;;;;;;3.23;96.33;103407.50;5036328;28;20049;-63
2023/12/17 08:01:12;;;;;;;27.30;16.20;;;;;;;3.20;95.87;103407.91;5054927;28;20064;-62
2023/12/17 08:03:42;;;;;;;26.73;16.00;;;;;;;3.24;95.41;103408.38;5051270;28;20056;-62
2023/12/17 08:06:09;;;;;;;26.08;15.85;;;;;;;3.08;96.27;103395.06;5040131;28;20618;-63
2023/12/17 08:08:37;;;;;;;28.27;16.55;;;;;;;3.17;96.04;103404.75;5051587;28;20049;-63
2023/12/17 08:11:05;;;;;;;23.95;15.00;;;;;;;2.72;96.47;103406.06;5035473;28;20064;-64
2023/12/17 08:13:33;;;;;;;27.10;15.65;;;;;;;3.15;97.11;103399.50;5036619;28;20052;-64
2023/12/17 08:16:00;;;;;;;23.75;13.98;;;;;;;3.19;96.39;103398.06;5054530;28;20052;-63
2023/12/17 08:18:38;;;;;;;23.52;15.27;;;;;;;3.11;95.85;103405.53;5053010;28;20564;-63
2023/12/17 08:21:06;;;;;;;21.08;13.13;;;;;;;3.11;95.66;103406.38;5036095;28;20041;-63
2023/12/17 08:23:33;;;;;;;21.17;14.02;;;;;;;3.09;96.39;103407.59;5033289;28;20046;-64
2023/12/17 08:26:01;;;;;;;23.15;14.18;;;;;;;3.02;96.38;103399.41;5048533;28;20057;-64
2023/12/17 08:28:28;;;;;;;23.08;14.07;;;;;;;3.34;96.24;103420.59;5034508;28;20531;-63
2023/12/17 08:30:56;;;;;;;20.30;13.10;;;;;;;3.35;95.25;103414.09;5032942;28;20056;-62
2023/12/17 08:33:27;;;;;;;20.40;12.73;;;;;;;3.30;94.75;103413.00;5049262;28;20049;-65
2023/12/17 08:35:58;;;;;;;22.52;12.82;;;;;;;3.19;95.11;103408.13;5033706;28;20163;-63
2023/12/17 08:38:25;;;;;;;19.95;12.68;;;;;;;3.20;95.12;103413.38;5015432;28;20052;-63
2023/12/17 08:40:54;;;;;;;21.83;13.45;;;;;;;3.21;95.41;103406.88;5033040;28;20053;-63
2023/12/17 08:43:21;;;;;;;21.92;13.80;;;;;;;3.24;95.34;103402.91;5033936;28;20411;-63
2023/12/17 08:45:49;;;;;;;20.83;13.75;;;;;;;3.24;95.02;103405.63;5033947;28;20045;-62
2023/12/17 08:48:17;;;;;;;24.83;14.38;;;;;;;3.20;95.79;103407.91;5033892;28;20531;-63
2023/12/17 08:50:44;;;;;;;24.42;14.82;;;;;;;3.10;96.11;103406.59;5033627;28;20052;-63
2023/12/17 08:53:12;;;;;;;24.60;14.20;;;;;;;3.31;96.40;103401.06;5071542;28;20063;-63
2023/12/17 08:55:39;;;;;;;25.23;15.10;;;;;;;3.42;95.21;103406.78;5055277;28;20067;-62
2023/12/17 08:58:06;;;;;;;26.08;14.95;;;;;;;3.47;94.97;103405.34;5025019;28;20050;-63
2023/12/17 09:00:34;;;;;;;26.83;15.00;;;;;;;3.43;94.83;103407.66;5028079;28;20672;-63
2023/12/17 09:03:02;;;;;;;25.08;15.23;;;;;;;3.47;94.63;103408.09;5043881;28;20041;-62
2023/12/17 09:05:31;;;;;;;26.55;16.25;;;;;;;3.51;94.70;103407.47;5047774;28;20504;-62
2023/12/17 09:07:59;;;;;;;26.73;16.67;;;;;;;3.49;95.50;103400.56;5051273;28;20052;-63
2023/12/17 09:10:29;;;;;;;25.13;15.30;;;;;;;3.37;95.25;103400.25;5035204;28;20299;-63
2023/12/17 09:12:57;;;;;;;27.23;16.73;;;;;;;3.27;95.59;103397.91;5053432;28;20052;-63
2023/12/17 09:15:24;;;;;;;26.45;15.93;;;;;;;3.46;96.14;103393.59;5051788;28;20366;-63
2023/12/17 09:17:52;;;;;;;24.20;14.48;;;;;;;3.40;96.01;103394.41;5035103;28;20053;-62
2023/12/17 09:20:20;;;;;;;25.13;15.50;;;;;;;3.39;96.12;103398.19;5046128;28;20065;-63
2023/12/17 09:23:03;;;;;;;27.23;16.80;;;;;;;3.63;95.88;103397.69;5013705;28;20053;-65
2023/12/17 09:25:32;;;;;;;25.48;14.65;;;;;;;3.71;94.65;103407.56;5051697;28;20045;-64
2023/12/17 09:28:04;;;;;;;21.83;14.13;;;;;;;3.72;94.25;103404.66;5052951;28;20517;-63
2023/12/17 09:30:31;;;;;;;23.70;13.60;;;;;;;3.65;94.46;103409.22;5052472;28;20527;-62
2023/12/17 09:32:59;;;;;;;21.02;13.57;;;;;;;3.70;94.41;103406.72;5051012;28;20053;-63
2023/12/17 09:35:27;;;;;;;24.05;14.07;;;;;;;3.71;93.95;103410.31;5034551;28;20427;-61
2023/12/17 09:37:54;;;;;;;23.77;14.10;;;;;;;3.79;94.01;103408.25;5051128;28;20483;-63
2023/12/17 09:40:21;;;;;;;21.75;13.50;;;;;;;3.79;93.91;103404.66;5052496;28;20123;-62
2023/12/17 09:42:52;;;;;;;22.85;13.77;;;;;;;3.66;94.35;103401.91;5052510;28;20053;-63
2023/12/17 09:45:19;;;;;;;22.40;13.45;;;;;;;3.66;94.52;103402.72;5052515;28;20053;-64
2023/12/17 09:47:47;;;;;;;21.42;13.77;;;;;;;3.71;94.62;103397.53;5050053;28;20044;-63
2023/12/17 09:50:24;;;;;;;22.13;13.75;;;;;;;4.06;93.95;103396.38;5050284;28;20049;-63
2023/12/17 09:52:54;;;;;;;25.15;13.95;;;;;;;4.08;92.91;103396.19;5034590;28;20057;-62
2023/12/17 09:55:22;;;;;;;24.27;13.50;;;;;;;4.19;92.48;103403.75;5051506;28;20060;-63
2023/12/17 09:57:50;;;;;;;23.45;13.82;;;;;;;4.24;91.82;103403.97;5047412;28;20056;-61
2023/12/17 10:00:17;;;;;;;23.35;14.05;;;;;;;4.14;91.34;103398.94;5040571;28;20052;-62
2023/12/17 10:02:45;;;;;;;22.90;14.43;;;;;;;4.09;92.12;103400.59;5042106;28;20042;-62
2023/12/17 10:05:13;;;;;;;23.45;14.20;;;;;;;4.19;91.97;103396.44;5046552;28;20060;-64
2023/12/17 10:07:40;;;;;;;24.00;14.60;;;;;;;4.34;92.79;103399.81;5050001;28;20033;-65
2023/12/17 10:10:27;;;;;;;24.80;14.40;;;;;;;4.23;91.89;103397.72;5030552;28;20076;-61
2023/12/17 10:13:18;;;;;;;22.83;14.30;;;;;;;4.07;91.58;103402.69;5050641;28;20068;-62
2023/12/17 10:16:06;;;;;;;26.65;14.57;;;;;;;4.26;92.69;103394.56;5024573;28;20052;-62
2023/12/17 10:18:54;;;;;;;21.92;14.07;;;;;;;4.13;91.98;103386.31;5032471;28;20067;-62
2023/12/17 10:21:42;;;;;;;23.63;14.57;;;;;;;4.05;92.74;103383.78;5039025;28;20466;-62
2023/12/17 10:24:37;;;;;;;25.42;15.18;;;;;;;4.18;93.01;103385.72;5031198;28;20076;-64
2023/12/17 10:27:25;;;;;;;24.35;14.52;;;;;;;4.23;92.83;103370.44;5017912;28;20068;-62
2023/12/17 10:30:12;;;;;;;23.45;14.45;;;;;;;4.22;92.35;103374.19;5019377;28;20045;-63
2023/12/17 10:33:01;;;;;;;28.23;14.80;;;;;;;4.42;91.88;103372.34;5035512;28;20233;-63
2023/12/17 10:35:49;;;;;;;29.13;19.58;;;;;;;4.53;91.07;103368.97;5051631;28;20060;-63
2023/12/17 10:38:37;;;;;;;24.60;15.60;;;;;;;4.36;90.77;103367.69;5028044;28;20427;-62
2023/12/17 10:41:26;;;;;;;22.38;15.48;;;;;;;4.12;91.92;103364.72;5031420;28;20049;-63
2023/12/17 10:43:54;;;;;;;24.23;15.65;;;;;;;3.99;92.53;103361.97;5042600;28;20075;-60
2023/12/17 10:46:22;;;;;;;26.67;15.80;;;;;;;4.15;92.56;103350.69;5036214;28;20056;-61
2023/12/17 10:48:52;;;;;;;26.58;16.02;;;;;;;4.23;92.57;103348.59;5032173;28;20052;-63
2023/12/17 10:51:20;;;;;;;27.67;17.52;;;;;;;4.21;92.88;103342.50;5034102;28;20064;-63
2023/12/17 10:53:47;;;;;;;28.17;16.13;;;;;;;4.23;92.58;103328.66;5030393;28;20654;-63
2023/12/17 10:56:15;;;;;;;31.33;19.83;;;;;;;4.41;92.37;103323.44;5047000;28;20115;-65
2023/12/17 10:58:43;;;;;;;32.40;21.52;;;;;;;4.54;91.86;103326.16;5051785;28;20041;-62
2023/12/17 11:01:10;;;;;;;30.63;20.00;;;;;;;4.40;92.02;103317.13;5038604;28;20045;-62
2023/12/17 11:03:39;;;;;;;23.13;16.13;;;;;;;4.83;91.21;103316.69;5062093;28;20056;-62
2023/12/17 11:06:07;;;;;;;22.83;15.52;;;;;;;4.84;89.96;103315.63;5052422;28;20048;-63
2023/12/17 11:08:36;;;;;;;25.55;15.82;;;;;;;4.90;89.59;103307.44;5062013;28;20491;-63
2023/12/17 11:11:03;;;;;;;21.77;15.82;;;;;;;5.03;89.21;103307.41;5058628;28;20045;-62
2023/12/17 11:13:30;;;;;;;25.30;15.60;;;;;;;4.98;88.21;103309.94;5049905;28;20068;-63
2023/12/17 11:16:17;;;;;;;23.20;15.20;;;;;;;4.79;88.53;103308.09;5037822;28;20049;-65
2023/12/17 11:18:44;;;;;;;24.90;15.23;;;;;;;4.86;88.92;103310.81;5050430;28;20045;-64
2023/12/17 11:21:13;;;;;;;23.08;15.75;;;;;;;4.97;88.69;103296.50;5033358;28;20045;-63
2023/12/17 11:23:47;;;;;;;29.55;16.90;;;;;;;5.17;88.00;103300.88;5048815;28;20049;-63